Time;durP1;ratioP1;P1;durP2;ratioP2;P2;SDS_P1;SDS_P2;PMS_P1;PMS_P2;Temp;Humidity;BMP_temperature;BMP_pressure;BME280_temperature;BME280_humidity;BME280_pressure;Samples;Min_cycle;Max_cycle;Signal;HPM_P1;HPM_P2
2023/08/13 00:00:04;;;;;;;12.27;1.23;;;16.80;99.90;;;;;;5026191;28;20038;-71
2023/08/13 00:02:29;;;;;;;8.02;1.98;;;16.80;99.90;;;;;;5028004;28;20573;-71
2023/08/13 00:04:55;;;;;;;6.45;1.40;;;16.80;99.90;;;;;;5010898;28;20048;-71
2023/08/13 00:07:21;;;;;;;6.90;1.25;;;16.70;99.90;;;;;;5027531;28;20842;-72
2023/08/13 00:09:46;;;;;;;8.55;1.38;;;16.70;99.90;;;;;;5028196;28;20037;-70
2023/08/13 00:12:12;;;;;;;8.25;1.70;;;16.80;99.90;;;;;;5027477;28;20037;-72
2023/08/13 00:14:37;;;;;;;8.07;1.08;;;16.80;99.90;;;;;;5010458;28;20515;-72
2023/08/13 00:17:04;;;;;;;15.50;1.67;;;16.70;99.90;;;;;;5028742;28;20044;-71
2023/08/13 00:19:30;;;;;;;19.67;1.98;;;16.70;99.90;;;;;;5009370;28;20041;-72
2023/08/13 00:21:56;;;;;;;7.85;1.20;;;16.70;99.90;;;;;;5027017;28;20022;-71
2023/08/13 00:24:21;;;;;;;7.82;1.60;;;16.70;99.90;;;;;;5026777;28;20033;-71
2023/08/13 00:26:47;;;;;;;5.90;0.93;;;16.60;99.90;;;;;;5020498;28;20390;-71
2023/08/13 00:29:13;;;;;;;6.60;1.23;;;16.70;99.90;;;;;;5026836;28;20036;-70
2023/08/13 00:31:38;;;;;;;5.80;0.93;;;16.70;99.90;;;;;;5028196;28;20040;-71
2023/08/13 00:34:04;;;;;;;9.05;1.60;;;16.70;99.90;;;;;;5009451;28;20036;-73
2023/08/13 00:36:29;;;;;;;8.55;2.00;;;16.70;99.90;;;;;;5026350;28;20039;-73
2023/08/13 00:38:55;;;;;;;14.25;1.20;;;16.70;99.90;;;;;;5010094;28;20029;-72
2023/08/13 00:41:20;;;;;;;7.43;1.15;;;16.70;99.90;;;;;;5008823;28;20505;-71
2023/08/13 00:43:46;;;;;;;14.25;1.40;;;16.60;99.90;;;;;;5009371;28;20397;-70
2023/08/13 00:46:12;;;;;;;6.57;0.93;;;16.60;99.90;;;;;;5026816;28;20160;-71
2023/08/13 00:48:39;;;;;;;6.53;1.77;;;16.60;99.90;;;;;;5009969;28;20079;-71
2023/08/13 00:51:05;;;;;;;7.88;1.55;;;16.70;99.90;;;;;;5009721;28;20033;-72
2023/08/13 00:53:31;;;;;;;5.63;1.13;;;16.70;99.90;;;;;;5027034;28;20043;-71
2023/08/13 00:55:57;;;;;;;9.35;1.60;;;16.70;99.90;;;;;;5009991;28;20044;-71
2023/08/13 00:58:23;;;;;;;10.82;1.77;;;16.60;99.90;;;;;;5001534;28;20037;-71
2023/08/13 01:00:49;;;;;;;6.40;1.52;;;16.70;99.90;;;;;;5009716;28;20041;-71
2023/08/13 01:03:14;;;;;;;13.75;1.85;;;16.70;99.90;;;;;;5008599;28;20052;-70
2023/08/13 01:05:57;;;;;;;7.60;2.25;;;16.60;99.90;;;;;;5027723;28;20035;-72
2023/08/13 01:08:49;;;;;;;8.82;1.20;;;16.60;99.90;;;;;;5014889;28;20549;-71
2023/08/13 01:11:45;;;;;;;6.10;0.88;;;16.60;99.90;;;;;;5002677;28;20516;-70
2023/08/13 01:14:26;;;;;;;4.30;1.10;;;16.60;99.90;;;;;;5002177;28;20378;-72
2023/08/13 01:16:54;;;;;;;11.60;1.63;;;16.70;99.90;;;;;;5005857;28;20029;-70
2023/08/13 01:19:20;;;;;;;6.43;1.23;;;16.70;99.90;;;;;;5026279;28;20532;-72
2023/08/13 01:21:46;;;;;;;6.13;0.93;;;16.60;99.90;;;;;;5027135;28;20108;-70
2023/08/13 01:24:11;;;;;;;8.27;1.60;;;16.60;99.90;;;;;;5026330;28;20029;-72
2023/08/13 01:27:17;;;;;;;9.65;1.35;;;16.60;99.90;;;;;;5009415;28;20034;-70
2023/08/13 01:29:59;;;;;;;8.75;2.55;;;16.60;99.90;;;;;;4940242;29;20381;-71
2023/08/13 01:32:31;;;;;;;3.83;1.23;;;16.60;99.90;;;;;;5002697;28;20041;-70
2023/08/13 01:34:58;;;;;;;8.20;1.45;;;16.60;99.90;;;;;;5024491;28;20064;-72
2023/08/13 01:37:25;;;;;;;13.02;2.30;;;16.50;99.90;;;;;;5025987;28;20568;-71
2023/08/13 01:39:50;;;;;;;5.68;1.10;;;16.60;99.90;;;;;;5009327;28;20116;-71
2023/08/13 01:42:17;;;;;;;6.97;1.15;;;16.50;99.90;;;;;;5008062;28;20152;-71
2023/08/13 01:44:43;;;;;;;12.23;2.78;;;16.60;99.90;;;;;;5027136;28;20465;-71
2023/08/13 01:47:08;;;;;;;9.52;2.20;;;16.50;99.90;;;;;;5025569;28;20035;-72
2023/08/13 01:49:34;;;;;;;12.10;1.42;;;16.50;99.90;;;;;;5009360;28;20033;-71
2023/08/13 01:52:00;;;;;;;6.13;1.45;;;16.50;99.90;;;;;;5027162;28;20053;-71
2023/08/13 01:54:25;;;;;;;7.70;1.67;;;16.50;99.90;;;;;;5008045;28;20061;-70
2023/08/13 01:56:51;;;;;;;11.32;1.27;;;16.50;99.90;;;;;;5026871;28;20108;-70
2023/08/13 01:59:17;;;;;;;6.57;1.52;;;16.50;99.90;;;;;;5005286;28;20168;-70
2023/08/13 02:01:43;;;;;;;10.85;1.33;;;16.50;99.90;;;;;;5026825;28;20037;-70
2023/08/13 02:04:08;;;;;;;10.18;1.92;;;16.50;99.90;;;;;;5024873;28;20608;-71
2023/08/13 02:06:35;;;;;;;6.55;1.10;;;16.50;99.90;;;;;;5025744;28;20033;-70
2023/08/13 02:09:02;;;;;;;9.50;1.88;;;16.50;99.90;;;;;;5025828;28;20618;-70
2023/08/13 02:11:28;;;;;;;8.40;1.63;;;16.40;99.90;;;;;;5025051;28;20516;-71
2023/08/13 02:13:53;;;;;;;7.72;1.40;;;16.50;99.90;;;;;;5007571;28;20037;-71
2023/08/13 02:16:19;;;;;;;7.13;2.28;;;16.50;99.90;;;;;;5006811;28;20060;-71
2023/08/13 02:18:44;;;;;;;7.35;2.38;;;16.40;99.90;;;;;;5025579;28;20040;-70
2023/08/13 02:21:10;;;;;;;11.32;1.58;;;16.40;99.90;;;;;;5006985;28;20091;-70
2023/08/13 02:23:35;;;;;;;8.02;1.90;;;16.40;99.90;;;;;;5010454;28;20100;-71
2023/08/13 02:26:01;;;;;;;10.30;1.35;;;16.40;99.90;;;;;;5011503;28;20033;-71
2023/08/13 02:28:27;;;;;;;3.78;1.30;;;16.30;99.90;;;;;;5010262;28;20045;-71
2023/08/13 02:30:52;;;;;;;6.13;1.45;;;16.30;99.90;;;;;;5028999;28;20544;-71
2023/08/13 02:33:18;;;;;;;11.02;1.30;;;16.30;99.90;;;;;;5028209;28;20539;-70
2023/08/13 02:35:43;;;;;;;5.22;1.25;;;16.30;99.90;;;;;;5026797;28;20033;-70
2023/08/13 02:38:09;;;;;;;8.38;1.13;;;16.20;99.90;;;;;;5009998;28;20033;-72
2023/08/13 02:40:35;;;;;;;8.70;2.03;;;16.20;99.90;;;;;;5010992;28;20040;-72
2023/08/13 02:43:02;;;;;;;9.48;1.40;;;16.20;99.90;;;;;;5028941;28;20049;-71
2023/08/13 02:45:28;;;;;;;10.60;1.52;;;16.10;99.90;;;;;;5027680;28;20489;-70
2023/08/13 02:47:53;;;;;;;8.52;1.77;;;16.10;99.90;;;;;;5028655;28;20037;-71
2023/08/13 02:50:19;;;;;;;9.57;1.30;;;16.10;99.90;;;;;;5027783;28;20132;-71
2023/08/13 02:52:44;;;;;;;7.53;1.10;;;16.10;99.90;;;;;;5011059;28;20134;-72
2023/08/13 02:55:10;;;;;;;9.32;2.53;;;16.10;99.90;;;;;;5028015;28;20053;-72
2023/08/13 02:57:36;;;;;;;8.57;1.50;;;16.10;99.90;;;;;;5008256;28;20033;-70
2023/08/13 03:00:02;;;;;;;5.78;1.38;;;16.00;99.90;;;;;;5010702;28;20029;-70
2023/08/13 03:02:27;;;;;;;11.32;2.00;;;16.00;99.90;;;;;;4984728;28;1084612;-71
2023/08/13 03:04:53;;;;;;;4.70;1.10;;;16.00;99.90;;;;;;5029747;28;20040;-72
2023/08/13 03:07:18;;;;;;;7.03;1.50;;;16.00;99.90;;;;;;5009356;28;20056;-72
2023/08/13 03:09:44;;;;;;;10.30;2.38;;;16.00;99.90;;;;;;5029283;28;20038;-72
2023/08/13 03:12:09;;;;;;;4.70;1.48;;;16.00;99.90;;;;;;5028681;28;20044;-71
2023/08/13 03:14:35;;;;;;;12.75;2.33;;;15.90;99.90;;;;;;5029215;28;20087;-72
2023/08/13 03:17:01;;;;;;;3.83;1.25;;;15.90;99.90;;;;;;5011695;28;20052;-71
2023/08/13 03:19:26;;;;;;;5.43;0.85;;;15.90;99.90;;;;;;5010308;28;20041;-71
2023/08/13 03:21:52;;;;;;;9.13;1.20;;;15.90;99.90;;;;;;5011539;28;20078;-73
2023/08/13 03:24:17;;;;;;;13.05;2.10;;;15.90;99.90;;;;;;5028561;28;20095;-73
2023/08/13 03:26:43;;;;;;;8.90;1.20;;;15.90;99.90;;;;;;5028785;28;20033;-71
2023/08/13 03:29:09;;;;;;;12.30;1.60;;;15.90;99.90;;;;;;5025387;28;20622;-69
2023/08/13 03:31:34;;;;;;;7.10;1.50;;;15.90;99.90;;;;;;5029373;28;20038;-71
2023/08/13 03:34:00;;;;;;;8.50;1.15;;;15.90;99.90;;;;;;5009621;28;20029;-69
2023/08/13 03:36:25;;;;;;;4.55;1.23;;;15.90;99.90;;;;;;5027691;28;20045;-70
2023/08/13 03:38:51;;;;;;;4.20;0.98;;;15.90;99.90;;;;;;5028938;28;20025;-70
2023/08/13 03:41:16;;;;;;;9.48;1.20;;;15.90;99.90;;;;;;5028115;28;20096;-72
2023/08/13 03:43:42;;;;;;;7.93;1.27;;;15.90;99.90;;;;;;5028927;28;20038;-73
2023/08/13 03:46:08;;;;;;;14.57;1.70;;;15.80;99.90;;;;;;5027852;28;20525;-71
2023/08/13 03:48:34;;;;;;;7.97;1.40;;;15.80;99.90;;;;;;5011033;28;20052;-70
2023/08/13 03:51:01;;;;;;;9.00;1.17;;;15.80;99.90;;;;;;5011158;28;20040;-73
2023/08/13 03:53:26;;;;;;;5.00;0.93;;;15.80;99.90;;;;;;5009873;28;22537;-71
2023/08/13 03:55:52;;;;;;;6.78;1.42;;;15.80;99.90;;;;;;5011303;28;20025;-69
2023/08/13 03:58:18;;;;;;;8.40;1.17;;;15.80;99.90;;;;;;5007718;28;20033;-71
2023/08/13 04:00:43;;;;;;;5.72;0.98;;;15.80;99.90;;;;;;5010853;28;20034;-70
2023/08/13 04:03:09;;;;;;;3.92;0.88;;;15.80;99.90;;;;;;5023256;28;20517;-71
2023/08/13 04:05:35;;;;;;;6.47;1.55;;;15.80;99.90;;;;;;5010592;28;20041;-71
2023/08/13 04:08:01;;;;;;;4.57;1.00;;;15.80;99.90;;;;;;5028589;28;20404;-71
2023/08/13 04:10:27;;;;;;;8.40;1.38;;;15.80;99.90;;;;;;5009627;28;20037;-69
2023/08/13 04:12:53;;;;;;;10.82;1.33;;;15.80;99.90;;;;;;5028518;28;20080;-71
2023/08/13 04:15:19;;;;;;;7.57;1.15;;;15.70;99.90;;;;;;5027498;28;20041;-71
2023/08/13 04:17:44;;;;;;;6.00;1.13;;;15.70;99.90;;;;;;5028753;28;20079;-72
2023/08/13 04:20:11;;;;;;;7.35;1.45;;;15.70;99.90;;;;;;5009686;28;20037;-71
2023/08/13 04:22:36;;;;;;;7.10;1.90;;;15.70;99.90;;;;;;5028645;28;20120;-71
2023/08/13 04:25:02;;;;;;;14.85;1.15;;;15.70;99.90;;;;;;5028345;28;20116;-71
2023/08/13 04:27:27;;;;;;;9.35;1.65;;;15.70;99.90;;;;;;5009743;28;20053;-69
2023/08/13 04:29:53;;;;;;;3.42;1.10;;;15.70;99.90;;;;;;5010760;28;20076;-71
2023/08/13 04:32:18;;;;;;;6.72;2.05;;;15.70;99.90;;;;;;5027596;28;20051;-71
2023/08/13 04:34:44;;;;;;;6.55;1.08;;;15.70;99.90;;;;;;5026838;28;20044;-72
2023/08/13 04:37:09;;;;;;;6.00;1.10;;;15.70;99.90;;;;;;5027170;28;20040;-72
2023/08/13 04:39:35;;;;;;;4.05;0.82;;;15.70;99.90;;;;;;5028260;28;20477;-71
2023/08/13 04:42:01;;;;;;;7.15;2.38;;;15.70;99.90;;;;;;5010470;28;20485;-72
2023/08/13 04:44:27;;;;;;;6.88;1.23;;;15.70;99.90;;;;;;5027422;28;20130;-72
2023/08/13 04:46:53;;;;;;;5.82;1.40;;;15.80;99.90;;;;;;5027919;28;20029;-74
2023/08/13 04:49:18;;;;;;;7.63;1.20;;;15.80;99.90;;;;;;5027044;28;20052;-72
2023/08/13 04:51:44;;;;;;;8.68;1.05;;;15.80;99.90;;;;;;5028007;28;20025;-71
2023/08/13 04:54:09;;;;;;;4.03;0.90;;;15.80;99.90;;;;;;5009309;28;20112;-70
2023/08/13 04:56:35;;;;;;;7.43;1.50;;;15.80;99.90;;;;;;5010368;28;20500;-71
2023/08/13 04:59:01;;;;;;;6.15;1.42;;;15.90;99.90;;;;;;5026480;28;20065;-72
2023/08/13 05:01:27;;;;;;;4.13;0.90;;;15.90;99.90;;;;;;5026929;28;20045;-71
2023/08/13 05:03:52;;;;;;;7.03;1.27;;;15.90;99.90;;;;;;5010295;28;20116;-71
2023/08/13 05:06:18;;;;;;;8.77;1.15;;;15.90;99.90;;;;;;5027147;28;20033;-71
2023/08/13 05:08:43;;;;;;;5.35;0.73;;;16.00;99.90;;;;;;5009857;28;20045;-71
2023/08/13 05:11:09;;;;;;;11.82;1.10;;;16.00;99.90;;;;;;5026696;28;20029;-71
2023/08/13 05:13:35;;;;;;;7.07;1.10;;;16.00;99.90;;;;;;5024168;28;20056;-71
2023/08/13 05:16:00;;;;;;;8.85;1.60;;;16.00;99.90;;;;;;5010068;28;20026;-70
2023/08/13 05:18:26;;;;;;;6.28;1.23;;;16.00;99.90;;;;;;5008849;28;20153;-72
2023/08/13 05:20:51;;;;;;;5.65;1.27;;;16.10;99.90;;;;;;5027707;28;20045;-72
2023/08/13 05:23:17;;;;;;;7.53;1.58;;;16.10;99.90;;;;;;5026499;28;20041;-70
2023/08/13 05:25:42;;;;;;;8.40;1.40;;;16.10;99.90;;;;;;5027647;28;20046;-69
2023/08/13 05:28:08;;;;;;;9.05;1.70;;;16.10;99.90;;;;;;5026003;28;20112;-70
2023/08/13 05:30:36;;;;;;;13.52;1.35;;;16.20;99.90;;;;;;5009936;28;20037;-71
2023/08/13 05:33:02;;;;;;;10.13;1.83;;;16.10;99.90;;;;;;5009799;28;20084;-70
2023/08/13 05:35:28;;;;;;;6.95;1.20;;;16.10;99.90;;;;;;5007474;28;20453;-70
2023/08/13 05:37:53;;;;;;;3.47;1.23;;;16.10;99.90;;;;;;5027361;28;20057;-70
2023/08/13 05:40:19;;;;;;;8.43;1.17;;;16.10;99.90;;;;;;5025436;28;20734;-72
2023/08/13 05:42:46;;;;;;;8.88;1.30;;;16.10;99.90;;;;;;5027491;28;20027;-72
2023/08/13 05:45:12;;;;;;;5.78;1.20;;;16.10;99.90;;;;;;5027294;28;20048;-71
2023/08/13 05:47:37;;;;;;;4.55;1.63;;;16.20;99.90;;;;;;5029399;28;20030;-72
2023/08/13 05:50:03;;;;;;;8.52;1.13;;;16.20;99.90;;;;;;5024695;28;20040;-71
2023/08/13 05:52:29;;;;;;;6.75;1.40;;;16.20;99.90;;;;;;5010488;28;20033;-72
2023/08/13 05:54:55;;;;;;;10.15;1.67;;;16.30;99.90;;;;;;5009719;28;20070;-72
2023/08/13 05:57:21;;;;;;;5.30;1.35;;;16.30;99.90;;;;;;5018354;28;20482;-71
2023/08/13 05:59:47;;;;;;;9.30;1.30;;;16.40;99.90;;;;;;5013094;28;20037;-71
2023/08/13 06:02:13;;;;;;;9.25;1.88;;;16.50;99.90;;;;;;5012475;28;20044;-72
2023/08/13 06:04:38;;;;;;;5.75;1.88;;;16.50;99.90;;;;;;5031204;28;20473;-72
2023/08/13 06:07:04;;;;;;;6.28;1.23;;;16.60;99.90;;;;;;5013525;28;20018;-72
2023/08/13 06:09:30;;;;;;;6.05;1.40;;;16.70;99.90;;;;;;5030091;28;20076;-71
2023/08/13 06:11:56;;;;;;;5.40;1.40;;;16.80;99.90;;;;;;5012620;28;20057;-72
2023/08/13 06:14:22;;;;;;;5.63;1.15;;;17.00;99.90;;;;;;5029646;28;20033;-70
2023/08/13 06:16:47;;;;;;;7.75;1.42;;;17.20;99.90;;;;;;5030896;28;20029;-70
2023/08/13 06:19:13;;;;;;;12.07;1.80;;;17.30;99.90;;;;;;5011966;28;20037;-73
2023/08/13 06:21:38;;;;;;;7.72;1.30;;;17.50;99.90;;;;;;5030435;28;20046;-71
2023/08/13 06:24:05;;;;;;;7.15;0.95;;;17.70;99.90;;;;;;5030598;28;20033;-71
2023/08/13 06:26:31;;;;;;;8.27;1.48;;;17.90;99.90;;;;;;5029559;28;20120;-72
2023/08/13 06:28:57;;;;;;;7.05;1.08;;;18.20;99.90;;;;;;5013052;28;20042;-72
2023/08/13 06:31:23;;;;;;;11.07;1.50;;;18.30;99.90;;;;;;5030063;28;20033;-72
2023/08/13 06:33:48;;;;;;;8.18;1.45;;;18.50;99.90;;;;;;5012899;28;20029;-72
2023/08/13 06:36:14;;;;;;;10.63;1.23;;;18.70;99.90;;;;;;5007361;28;20051;-73
2023/08/13 06:38:40;;;;;;;4.85;1.25;;;18.80;99.90;;;;;;5030831;28;20076;-71
2023/08/13 06:41:06;;;;;;;3.92;0.77;;;19.10;99.90;;;;;;5030427;28;20042;-71
2023/08/13 06:43:32;;;;;;;6.25;0.93;;;19.30;99.90;;;;;;5011978;28;20033;-72
2023/08/13 06:45:59;;;;;;;5.78;1.17;;;19.70;99.90;;;;;;5030342;28;20029;-72
2023/08/13 06:48:26;;;;;;;2.85;1.05;;;20.50;99.90;;;;;;5028986;28;20029;-71
2023/08/13 06:50:55;;;;;;;5.85;0.82;;;21.40;99.90;;;;;;5030176;28;20045;-72
2023/08/13 06:53:20;;;;;;;8.30;1.13;;;22.40;99.90;;;;;;5004163;28;20036;-72
2023/08/13 06:55:46;;;;;;;6.63;1.23;;;23.20;99.90;;;;;;5012737;28;20033;-72
2023/08/13 06:58:12;;;;;;;4.95;0.80;;;23.80;99.90;;;;;;5006468;28;20052;-72
2023/08/13 07:00:37;;;;;;;4.50;1.35;;;24.40;99.90;;;;;;5012454;28;20049;-72
2023/08/13 07:03:03;;;;;;;7.68;0.98;;;25.00;99.90;;;;;;5012203;28;20505;-71
2023/08/13 07:05:29;;;;;;;7.88;1.10;;;25.70;99.90;;;;;;5028960;28;20482;-72
2023/08/13 07:07:55;;;;;;;5.38;1.42;;;26.10;99.90;;;;;;5029941;28;20041;-71
2023/08/13 07:10:20;;;;;;;7.57;1.90;;;27.00;99.90;;;;;;5011099;28;20040;-72
2023/08/13 07:12:46;;;;;;;5.82;1.30;;;27.80;99.90;;;;;;5021866;28;20022;-73
2023/08/13 07:15:12;;;;;;;7.72;1.65;;;28.50;99.90;;;;;;5028114;28;20061;-73
2023/08/13 07:17:37;;;;;;;8.73;1.55;;;29.20;99.90;;;;;;5027416;28;20417;-72
2023/08/13 07:20:08;;;;;;;9.63;2.05;;;29.30;99.90;;;;;;5011423;28;20048;-72
2023/08/13 07:22:34;;;;;;;5.50;1.73;;;29.10;99.90;;;;;;5010346;28;20083;-72
2023/08/13 07:24:59;;;;;;;9.02;2.25;;;28.30;99.90;;;;;;5029306;28;20033;-72
2023/08/13 07:27:25;;;;;;;14.25;2.42;;;27.30;99.90;;;;;;5009521;28;20045;-71
2023/08/13 07:29:50;;;;;;;7.35;1.70;;;26.50;99.90;;;;;;5029695;28;20137;-73
2023/08/13 07:32:16;;;;;;;7.35;1.52;;;26.20;99.90;;;;;;5009733;28;20029;-72
2023/08/13 07:34:41;;;;;;;7.60;1.33;;;25.90;99.90;;;;;;4994710;28;20195;-71
2023/08/13 07:37:07;;;;;;;4.65;1.20;;;25.30;99.90;;;;;;5027316;28;20052;-71
2023/08/13 07:39:33;;;;;;;4.68;1.00;;;24.60;99.90;;;;;;5027897;28;20026;-72
2023/08/13 07:41:58;;;;;;;4.97;1.35;;;24.10;99.90;;;;;;5010721;28;20454;-72
2023/08/13 07:44:25;;;;;;;4.10;1.10;;;23.70;99.90;;;;;;5027084;28;20048;-71
2023/08/13 07:46:54;;;;;;;4.93;0.90;;;23.50;99.90;;;;;;5019730;28;20563;-73
2023/08/13 07:49:19;;;;;;;10.48;1.48;;;23.30;99.90;;;;;;5027013;28;20441;-71
2023/08/13 07:51:45;;;;;;;5.78;1.65;;;23.00;99.90;;;;;;5001552;28;20088;-71
2023/08/13 07:54:10;;;;;;;4.28;0.80;;;22.70;99.90;;;;;;5015431;28;20042;-71
2023/08/13 07:56:36;;;;;;;4.10;0.93;;;22.50;99.90;;;;;;4999763;28;20731;-70
2023/08/13 07:59:02;;;;;;;4.93;1.00;;;22.30;99.90;;;;;;4998478;28;20679;-73
2023/08/13 08:01:29;;;;;;;10.93;1.17;;;22.10;99.90;;;;;;5003667;28;20112;-72
2023/08/13 08:03:54;;;;;;;6.47;1.52;;;21.90;99.90;;;;;;5016068;28;20485;-72
2023/08/13 08:06:21;;;;;;;5.13;0.90;;;21.90;99.90;;;;;;5020555;28;20029;-72
2023/08/13 08:08:46;;;;;;;6.30;0.85;;;21.90;99.90;;;;;;5023239;28;20030;-72
2023/08/13 08:11:12;;;;;;;4.35;0.82;;;22.00;99.90;;;;;;5003686;28;20047;-74
2023/08/13 08:13:38;;;;;;;5.28;1.38;;;22.20;99.90;;;;;;5015871;28;20121;-72
2023/08/13 08:16:03;;;;;;;2.88;0.85;;;22.40;99.90;;;;;;5018388;28;20517;-70
2023/08/13 08:18:29;;;;;;;1.88;0.50;;;22.50;99.90;;;;;;5000623;28;20625;-72
2023/08/13 08:20:54;;;;;;;7.95;1.40;;;22.50;99.90;;;;;;4997619;28;20033;-71
2023/08/13 08:23:20;;;;;;;4.63;0.70;;;22.50;99.90;;;;;;4996902;28;20030;-71
2023/08/13 08:25:45;;;;;;;4.28;0.90;;;22.50;99.90;;;;;;5015442;28;20034;-72
2023/08/13 08:28:11;;;;;;;4.30;1.20;;;22.70;99.90;;;;;;5019286;28;20064;-74
2023/08/13 08:30:37;;;;;;;3.00;0.60;;;22.60;99.90;;;;;;5018710;28;20029;-72
2023/08/13 08:33:03;;;;;;;2.53;0.70;;;22.70;99.90;;;;;;5019578;28;20034;-71
2023/08/13 08:35:28;;;;;;;4.18;0.93;;;22.70;99.90;;;;;;4999663;28;20481;-70
2023/08/13 08:37:54;;;;;;;3.17;0.50;;;22.70;99.90;;;;;;5026926;28;20120;-72
2023/08/13 08:40:20;;;;;;;2.50;0.80;;;22.70;99.90;;;;;;5007514;28;20053;-71
2023/08/13 08:42:46;;;;;;;8.10;1.15;;;22.60;99.90;;;;;;5026418;28;20370;-71
2023/08/13 08:45:16;;;;;;;4.13;0.60;;;22.60;99.90;;;;;;5017432;28;20040;-71
2023/08/13 08:47:43;;;;;;;2.55;0.47;;;22.50;99.90;;;;;;5001784;28;20052;-71
2023/08/13 08:50:14;;;;;;;3.97;0.80;;;22.40;99.90;;;;;;5027443;28;20028;-72
2023/08/13 08:52:40;;;;;;;4.22;0.70;;;22.30;99.90;;;;;;5027107;28;20390;-72
2023/08/13 08:55:06;;;;;;;3.60;0.90;;;22.20;99.90;;;;;;5027724;28;20034;-72
2023/08/13 08:57:32;;;;;;;3.83;0.68;;;22.10;99.90;;;;;;5025195;28;20504;-72
2023/08/13 08:59:58;;;;;;;7.45;1.52;;;22.00;99.90;;;;;;5008096;28;20030;-70
2023/08/13 09:02:27;;;;;;;3.45;0.43;;;21.90;99.90;;;;;;5013641;28;20042;-71
2023/08/13 09:04:52;;;;;;;3.22;0.63;;;21.90;99.90;;;;;;5027739;28;20095;-71
2023/08/13 09:07:18;;;;;;;4.05;0.90;;;21.90;99.90;;;;;;5026833;28;20502;-70
2023/08/13 09:09:48;;;;;;;4.30;1.20;;;22.00;99.90;;;;;;5007775;28;20041;-70
2023/08/13 09:12:15;;;;;;;6.80;0.68;;;22.10;99.90;;;;;;4999504;28;20485;-71
2023/08/13 09:14:40;;;;;;;9.52;1.40;;;22.30;99.90;;;;;;5027792;28;20083;-70
2023/08/13 09:17:10;;;;;;;2.65;0.63;;;22.30;99.90;;;;;;5009980;28;20418;-71
2023/08/13 09:19:35;;;;;;;8.60;1.67;;;22.30;99.90;;;;;;5026240;28;20619;-71
2023/08/13 09:22:01;;;;;;;6.15;0.90;;;22.30;99.90;;;;;;5004105;28;20057;-71
2023/08/13 09:24:32;;;;;;;5.13;0.82;;;22.20;99.90;;;;;;5021069;28;20056;-71
2023/08/13 09:26:58;;;;;;;5.50;1.25;;;22.20;99.90;;;;;;5026102;28;20033;-70
2023/08/13 09:29:26;;;;;;;6.03;1.00;;;22.20;99.90;;;;;;5024483;28;20029;-72
2023/08/13 09:31:51;;;;;;;3.05;0.80;;;22.00;99.90;;;;;;5027526;28;20033;-71
2023/08/13 09:34:18;;;;;;;4.53;0.98;;;21.70;99.90;;;;;;5007520;28;20528;-71
2023/08/13 09:36:44;;;;;;;4.63;1.00;;;21.60;99.90;;;;;;5026819;28;20398;-72
2023/08/13 09:39:10;;;;;;;6.38;1.15;;;21.60;99.90;;;;;;5008577;28;20059;-72
2023/08/13 09:41:36;;;;;;;5.45;0.88;;;21.80;99.90;;;;;;5027428;28;20041;-73
2023/08/13 09:44:10;;;;;;;4.32;1.00;;;21.90;99.90;;;;;;5009018;28;20059;-71
2023/08/13 09:46:36;;;;;;;3.38;0.80;;;22.10;99.90;;;;;;5026993;28;20044;-72
2023/08/13 09:49:04;;;;;;;6.43;1.50;;;22.10;99.90;;;;;;5009719;28;20649;-70
2023/08/13 09:51:32;;;;;;;4.38;1.58;;;22.20;99.90;;;;;;5026324;28;20533;-70
2023/08/13 09:54:03;;;;;;;6.55;2.03;;;22.30;99.90;;;;;;5005645;28;20038;-71
2023/08/13 09:56:30;;;;;;;4.57;1.13;;;22.40;99.90;;;;;;5026581;28;20374;-71
2023/08/13 09:58:56;;;;;;;4.53;1.20;;;22.40;99.90;;;;;;4998361;28;20029;-71
2023/08/13 10:01:23;;;;;;;6.57;1.15;;;22.40;99.90;;;;;;5006901;28;20672;-71
2023/08/13 10:03:50;;;;;;;6.28;1.33;;;22.40;99.90;;;;;;5027162;28;20091;-72
2023/08/13 10:06:17;;;;;;;4.28;0.98;;;22.40;99.90;;;;;;5006402;28;20044;-71
2023/08/13 10:08:42;;;;;;;5.15;1.15;;;22.50;99.90;;;;;;5027389;28;20033;-71
2023/08/13 10:11:09;;;;;;;3.03;0.75;;;22.70;99.90;;;;;;4995785;28;20110;-71
2023/08/13 10:13:35;;;;;;;5.50;1.00;;;22.70;99.90;;;;;;5009146;28;20033;-71
2023/08/13 10:16:01;;;;;;;6.15;1.10;;;22.70;99.90;;;;;;5024107;28;20037;-70
2023/08/13 10:18:29;;;;;;;3.95;0.93;;;22.90;99.90;;;;;;5009338;28;20393;-73
2023/08/13 10:20:54;;;;;;;4.82;1.23;;;23.10;99.90;;;;;;5030226;28;20060;-71
2023/08/13 10:23:22;;;;;;;7.32;1.33;;;23.10;99.90;;;;;;5011900;28;20040;-73
2023/08/13 10:25:52;;;;;;;6.13;1.13;;;23.20;99.90;;;;;;5012065;28;20037;-70
2023/08/13 10:28:31;;;;;;;5.63;1.25;;;23.20;99.90;;;;;;5007797;28;20033;-73
2023/08/13 10:31:29;;;;;;;4.45;0.80;;;23.00;99.90;;;;;;5027648;28;20457;-71
2023/08/13 10:34:12;;;;;;;3.38;0.75;;;23.00;99.90;;;;;;5006450;28;20375;-73
2023/08/13 10:36:52;;;;;;;4.20;0.70;;;22.90;99.90;;;;;;4985691;28;20033;-71
2023/08/13 10:39:37;;;;;;;8.40;0.80;;;22.80;99.90;;;;;;5021497;28;20037;-72
2023/08/13 10:42:04;;;;;;;8.73;1.10;;;22.80;99.90;;;;;;5008997;28;20140;-73
2023/08/13 10:44:40;;;;;;;4.05;1.40;;;22.70;99.90;;;;;;4993340;28;20367;-72
2023/08/13 10:47:06;;;;;;;6.90;0.82;;;22.60;99.90;;;;;;5011013;28;20172;-70
2023/08/13 10:49:31;;;;;;;4.63;0.85;;;22.70;99.90;;;;;;5029524;28;20128;-71
2023/08/13 10:52:01;;;;;;;3.67;0.93;;;22.70;99.90;;;;;;5030065;28;20056;-71
2023/08/13 10:54:27;;;;;;;5.03;0.75;;;22.80;99.90;;;;;;5029643;28;20130;-71
2023/08/13 10:56:57;;;;;;;2.75;0.70;;;22.80;99.90;;;;;;5000686;28;20057;-73
2023/08/13 10:59:31;;;;;;;3.05;0.57;;;22.70;99.90;;;;;;5008518;28;20037;-73
2023/08/13 11:02:14;;;;;;;3.72;1.23;;;22.60;99.90;;;;;;5030200;28;20033;-71
2023/08/13 11:04:42;;;;;;;5.03;0.98;;;22.40;99.90;;;;;;5023285;28;20064;-71
2023/08/13 11:07:09;;;;;;;8.38;1.05;;;22.40;99.90;;;;;;5029770;28;20084;-70
2023/08/13 11:09:36;;;;;;;2.22;0.73;;;22.30;99.90;;;;;;5030564;28;20115;-72
2023/08/13 11:12:02;;;;;;;2.35;0.15;;;22.30;99.90;;;;;;5013586;28;20265;-71
2023/08/13 11:14:28;;;;;;;2.28;0.70;;;22.40;99.90;;;;;;5031173;28;20624;-69
2023/08/13 11:16:55;;;;;;;2.38;0.43;;;22.40;99.90;;;;;;5005410;28;20643;-72
2023/08/13 11:19:20;;;;;;;4.50;0.68;;;22.50;99.90;;;;;;5008374;28;20033;-71
2023/08/13 11:21:46;;;;;;;4.55;0.60;;;22.70;99.90;;;;;;5029968;28;20083;-71
2023/08/13 11:24:12;;;;;;;2.78;0.55;;;22.90;99.90;;;;;;5028705;28;20057;-72
2023/08/13 11:26:39;;;;;;;0.57;0.17;;;23.10;99.90;;;;;;5029530;28;20033;-72
2023/08/13 11:29:05;;;;;;;5.25;0.65;;;23.10;99.90;;;;;;4995283;28;20038;-71
2023/08/13 11:31:33;;;;;;;4.72;0.85;;;23.20;99.90;;;;;;5015963;28;20036;-70
2023/08/13 11:33:59;;;;;;;1.73;0.65;;;23.40;99.90;;;;;;5019653;28;20111;-72
2023/08/13 11:36:25;;;;;;;7.72;1.15;;;23.40;99.90;;;;;;5012589;28;20057;-73
2023/08/13 11:38:50;;;;;;;2.00;0.50;;;23.40;99.90;;;;;;5017116;28;20038;-71
2023/08/13 11:41:16;;;;;;;3.80;0.85;;;23.50;99.90;;;;;;5005385;28;20072;-71
2023/08/13 11:43:42;;;;;;;7.75;1.02;;;23.50;99.90;;;;;;5020445;28;20176;-71
2023/08/13 11:46:08;;;;;;;4.97;0.95;;;23.60;99.90;;;;;;4996301;28;20062;-72
2023/08/13 11:48:37;;;;;;;4.32;1.00;;;23.60;99.90;;;;;;5001844;28;20115;-72
2023/08/13 11:51:13;;;;;;;5.40;0.90;;;23.70;99.90;;;;;;5000760;28;20366;-73
2023/08/13 11:53:46;;;;;;;2.95;0.68;;;23.80;99.90;;;;;;5017019;28;20041;-72
2023/08/13 11:56:13;;;;;;;4.00;0.95;;;23.90;99.90;;;;;;5016830;28;20517;-70
2023/08/13 11:58:39;;;;;;;5.22;0.90;;;24.00;99.90;;;;;;5019802;28;20591;-70
2023/08/13 12:01:05;;;;;;;7.30;1.27;;;24.00;99.90;;;;;;5003151;28;20033;-72
2023/08/13 12:03:35;;;;;;;4.05;1.10;;;23.90;99.90;;;;;;5018911;28;20485;-72
2023/08/13 12:06:01;;;;;;;7.18;1.70;;;23.80;99.90;;;;;;5016902;28;20069;-72
2023/08/13 12:08:28;;;;;;;5.88;0.95;;;23.70;99.90;;;;;;5012076;28;20139;-71
2023/08/13 12:10:54;;;;;;;4.53;1.20;;;23.60;99.90;;;;;;5019657;28;20164;-72
2023/08/13 12:13:19;;;;;;;7.78;1.48;;;23.60;99.90;;;;;;5016461;28;20064;-71
2023/08/13 12:15:45;;;;;;;4.13;1.02;;;23.50;99.90;;;;;;5018754;28;20078;-70
2023/08/13 12:18:10;;;;;;;6.40;1.00;;;23.30;99.90;;;;;;5018962;28;20025;-71
2023/08/13 12:20:36;;;;;;;4.35;1.17;;;23.20;99.90;;;;;;5001712;28;20096;-70
2023/08/13 12:23:02;;;;;;;5.20;1.13;;;23.10;99.90;;;;;;5015655;28;20036;-70
2023/08/13 12:25:29;;;;;;;3.70;1.52;;;23.00;99.90;;;;;;4994774;28;20037;-72
2023/08/13 12:27:55;;;;;;;8.07;1.23;;;22.80;99.90;;;;;;4996756;28;20220;-71
2023/08/13 12:30:21;;;;;;;3.40;0.80;;;22.60;99.90;;;;;;5019757;28;20513;-70
2023/08/13 12:32:47;;;;;;;6.55;1.30;;;22.60;99.90;;;;;;5003386;28;20030;-72
2023/08/13 12:35:12;;;;;;;5.68;1.25;;;22.50;99.90;;;;;;4992985;28;20029;-70
2023/08/13 12:37:38;;;;;;;6.55;1.25;;;22.40;99.90;;;;;;5004715;28;20491;-71
2023/08/13 12:40:04;;;;;;;4.65;0.77;;;22.40;99.90;;;;;;5026987;28;20075;-71
2023/08/13 12:42:30;;;;;;;8.02;1.40;;;22.40;99.90;;;;;;5026088;28;20026;-70